createdAt,value
2019-03-23T00:00:08.733Z,30.53
2019-03-23T00:02:37.394Z,35.73
2019-03-23T00:05:08.131Z,34.13
2019-03-23T00:07:36.796Z,49.47
2019-03-23T00:10:08.817Z,42.90
2019-03-23T00:12:37.653Z,44.90
2019-03-23T00:15:11.717Z,39.37
2019-03-23T00:17:40.384Z,39.60
2019-03-23T00:20:09.510Z,54.67
2019-03-23T00:22:38.318Z,49.80
2019-03-23T00:25:07.320Z,56.63
2019-03-23T00:27:35.958Z,60.87
2019-03-23T00:30:10.752Z,99.47
2019-03-23T00:32:39.351Z,111.60
2019-03-23T00:35:08.732Z,128.33
2019-03-23T00:37:37.444Z,72.00
2019-03-23T00:40:09.051Z,38.13
2019-03-23T00:42:37.786Z,65.20
2019-03-23T00:45:07.894Z,89.57
2019-03-23T00:47:36.558Z,85.80
2019-03-23T00:50:06.975Z,96.83
2019-03-23T00:52:35.510Z,45.03
2019-03-23T00:55:06.959Z,85.83
2019-03-23T00:57:35.658Z,74.63
2019-03-23T01:00:10.473Z,145.87
2019-03-23T01:02:41.611Z,135.83
2019-03-23T01:05:09.933Z,81.77
2019-03-23T01:07:38.662Z,87.83
2019-03-23T01:10:12.699Z,48.87
2019-03-23T01:12:41.254Z,38.63
2019-03-23T01:15:11.724Z,36.10
2019-03-23T01:17:40.646Z,37.47
2019-03-23T01:20:11.026Z,35.93
2019-03-23T01:22:39.824Z,37.60
2019-03-23T01:25:10.523Z,36.93
2019-03-23T01:27:39.121Z,36.27
2019-03-23T01:30:10.799Z,25.63
2019-03-23T01:32:39.316Z,24.13
2019-03-23T01:35:08.454Z,30.07
2019-03-23T01:37:37.151Z,27.07
2019-03-23T01:40:07.556Z,27.63
2019-03-23T01:42:36.245Z,25.37
2019-03-23T01:45:08.277Z,24.60
2019-03-23T01:47:36.934Z,28.60
2019-03-23T01:50:07.810Z,27.67
2019-03-23T01:52:36.525Z,30.70
2019-03-23T01:55:08.781Z,35.73
2019-03-23T01:57:37.511Z,22.67
2019-03-23T02:00:11.726Z,32.00
2019-03-23T02:02:40.359Z,24.83
2019-03-23T02:05:09.693Z,24.73
2019-03-23T02:07:38.351Z,30.53
2019-03-23T02:10:09.582Z,29.93
2019-03-23T02:12:38.243Z,26.60
2019-03-23T02:15:09.055Z,28.80
2019-03-23T02:17:37.665Z,28.37
2019-03-23T02:20:11.621Z,28.90
2019-03-23T02:22:40.487Z,23.93
2019-03-23T02:25:09.558Z,23.17
2019-03-23T02:27:38.151Z,27.17
2019-03-23T02:30:10.059Z,27.53
2019-03-23T02:32:38.700Z,29.35
2019-03-23T02:35:08.968Z,24.50
2019-03-23T02:37:37.705Z,29.83
2019-03-23T02:40:08.212Z,21.70
2019-03-23T02:42:36.803Z,23.87
2019-03-23T02:45:11.751Z,23.07
2019-03-23T02:47:40.593Z,19.70
2019-03-23T02:50:10.489Z,24.30
2019-03-23T02:52:39.030Z,18.93
2019-03-23T02:55:09.449Z,23.70
2019-03-23T02:57:38.138Z,18.07
2019-03-23T03:00:12.722Z,18.20
2019-03-23T03:02:41.360Z,18.37
2019-03-23T03:05:10.122Z,21.87
2019-03-23T03:07:42.354Z,21.53
2019-03-23T03:10:11.428Z,18.77
2019-03-23T03:12:40.280Z,26.67
2019-03-23T03:15:10.047Z,19.40
2019-03-23T03:17:38.866Z,19.03
2019-03-23T03:20:09.226Z,16.37
2019-03-23T03:22:37.782Z,19.97
2019-03-23T03:25:08.436Z,17.37
2019-03-23T03:27:37.282Z,20.00
2019-03-23T03:30:08.538Z,14.27
2019-03-23T03:32:37.153Z,19.27
2019-03-23T03:35:06.915Z,14.30
2019-03-23T03:37:35.836Z,12.33
2019-03-23T03:40:06.368Z,13.93
2019-03-23T03:42:35.292Z,14.50
2019-03-23T03:45:06.507Z,12.37
2019-03-23T03:47:35.353Z,10.03
2019-03-23T03:50:06.583Z,10.10
2019-03-23T03:52:35.485Z,14.00
2019-03-23T03:55:05.874Z,14.33
2019-03-23T03:57:34.443Z,33.77
2019-03-23T04:00:04.108Z,19.70
2019-03-23T04:02:32.693Z,23.97
2019-03-23T04:05:01.352Z,23.30
2019-03-23T04:07:29.915Z,18.00
2019-03-23T04:09:58.471Z,17.97
2019-03-23T04:12:27.046Z,16.13
2019-03-23T04:14:55.764Z,11.30
2019-03-23T04:17:24.379Z,14.10
2019-03-23T04:19:53.015Z,14.00
2019-03-23T04:22:21.619Z,11.70
2019-03-23T04:24:50.521Z,12.10
2019-03-23T04:27:19.110Z,12.20
2019-03-23T04:29:47.695Z,14.10
2019-03-23T04:32:16.571Z,13.10
2019-03-23T04:34:45.189Z,10.30
2019-03-23T04:37:13.774Z,12.30
2019-03-23T04:39:42.342Z,9.63
2019-03-23T04:42:10.904Z,14.03
2019-03-23T04:44:39.542Z,9.90
2019-03-23T04:47:08.161Z,12.87
2019-03-23T04:49:36.750Z,8.93
2019-03-23T04:52:05.458Z,11.27
2019-03-23T04:54:34.033Z,11.13
2019-03-23T04:57:02.665Z,13.50
2019-03-23T04:59:31.474Z,9.87
2019-03-23T05:02:00.004Z,13.10
2019-03-23T05:04:28.602Z,14.67
2019-03-23T05:06:57.173Z,10.80
2019-03-23T05:09:25.778Z,11.47
2019-03-23T05:11:54.372Z,9.33
2019-03-23T05:14:22.959Z,9.73
2019-03-23T05:16:51.550Z,10.73
2019-03-23T05:19:20.146Z,7.77
2019-03-23T05:21:48.757Z,10.63
2019-03-23T05:24:17.306Z,8.07
2019-03-23T05:26:45.939Z,11.40
2019-03-23T05:29:14.497Z,13.47
2019-03-23T05:31:43.225Z,14.30
2019-03-23T05:34:11.801Z,13.43
2019-03-23T05:36:40.393Z,13.73
2019-03-23T05:39:08.959Z,10.63
2019-03-23T05:41:37.619Z,14.53
2019-03-23T05:44:06.546Z,9.27
2019-03-23T05:46:35.112Z,9.27
2019-03-23T05:49:03.914Z,13.33
2019-03-23T05:51:32.907Z,11.57
2019-03-23T05:54:01.587Z,11.70
2019-03-23T05:56:30.151Z,7.07
2019-03-23T05:58:58.713Z,11.13
2019-03-23T06:01:27.315Z,10.23
2019-03-23T06:03:56.012Z,9.63
2019-03-23T06:06:24.549Z,14.53
2019-03-23T06:08:55.329Z,11.57
2019-03-23T06:11:23.369Z,8.93
2019-03-23T06:13:51.954Z,6.47
2019-03-23T06:16:20.626Z,10.30
2019-03-23T06:18:49.325Z,10.87
2019-03-23T06:21:17.982Z,3.47
2019-03-23T06:23:46.710Z,8.30
2019-03-23T06:26:15.257Z,12.57
2019-03-23T06:28:44.079Z,8.63
2019-03-23T06:31:12.697Z,8.10
2019-03-23T06:33:41.265Z,5.53
2019-03-23T06:36:09.923Z,4.80
2019-03-23T06:38:38.501Z,9.17
2019-03-23T06:41:07.185Z,5.77
2019-03-23T06:43:35.790Z,6.17
2019-03-23T06:46:04.411Z,4.97
2019-03-23T06:48:32.973Z,5.70
2019-03-23T06:51:03.276Z,7.17
2019-03-23T06:53:31.834Z,9.23
2019-03-23T06:56:00.390Z,4.83
2019-03-23T06:58:28.992Z,8.83
2019-03-23T07:00:57.749Z,6.30
2019-03-23T07:03:26.385Z,7.57
2019-03-23T07:05:54.958Z,5.40
2019-03-23T07:08:31.535Z,2.63
2019-03-23T07:10:53.877Z,5.47
2019-03-23T07:13:22.458Z,7.13
2019-03-23T07:15:51.098Z,6.47
2019-03-23T07:18:19.857Z,4.57
2019-03-23T07:20:48.428Z,9.47
2019-03-23T07:23:18.125Z,5.13
2019-03-23T07:25:46.928Z,5.23
2019-03-23T07:28:15.531Z,8.77
2019-03-23T07:30:44.094Z,6.87
2019-03-23T07:33:12.694Z,5.67
2019-03-23T07:35:41.467Z,5.30
2019-03-23T07:38:11.043Z,9.40
2019-03-23T07:40:39.630Z,3.83
2019-03-23T07:43:08.191Z,4.63
2019-03-23T07:45:36.972Z,5.83
2019-03-23T07:48:05.941Z,2.53
2019-03-23T07:50:34.601Z,3.13
2019-03-23T07:53:03.306Z,4.93
2019-03-23T07:55:31.911Z,12.83
2019-03-23T07:58:00.475Z,3.53
2019-03-23T08:00:29.110Z,5.83
2019-03-23T08:02:59.008Z,6.40
2019-03-23T08:05:27.659Z,5.27
2019-03-23T08:07:57.789Z,3.30
2019-03-23T08:10:33.333Z,4.67
2019-03-23T08:13:02.758Z,5.10
2019-03-23T08:15:31.588Z,6.67
2019-03-23T08:18:00.177Z,4.33
2019-03-23T08:20:28.805Z,6.47
2019-03-23T08:22:57.850Z,11.70
2019-03-23T08:25:26.478Z,8.30
2019-03-23T08:27:55.190Z,6.03
2019-03-23T08:30:23.811Z,5.33
2019-03-23T08:32:54.250Z,4.97
2019-03-23T08:35:22.762Z,6.97
2019-03-23T08:37:51.468Z,6.07
2019-03-23T08:40:20.129Z,4.13
2019-03-23T08:42:48.773Z,4.77
2019-03-23T08:45:17.498Z,4.30
2019-03-23T08:47:46.091Z,8.27
2019-03-23T08:50:15.006Z,5.30
2019-03-23T08:52:43.534Z,8.17
2019-03-23T08:55:12.187Z,5.67
2019-03-23T08:57:41.553Z,5.67
2019-03-23T09:00:11.582Z,5.67
2019-03-23T09:02:41.151Z,5.23
2019-03-23T09:05:10.028Z,5.17
2019-03-23T09:07:38.636Z,6.77
2019-03-23T09:10:08.235Z,7.47
2019-03-23T09:12:36.908Z,3.40
2019-03-23T11:14:13.577Z,12.95
2019-03-23T11:16:42.335Z,9.53
2019-03-23T11:19:13.564Z,8.70
2019-03-23T11:21:41.628Z,11.20
2019-03-23T11:24:10.868Z,12.80
2019-03-23T11:26:39.875Z,9.73
2019-03-23T11:29:08.618Z,12.05
2019-03-23T11:31:37.564Z,8.93
2019-03-23T11:34:06.213Z,8.90
2019-03-23T11:36:42.224Z,11.15
2019-03-23T11:39:10.837Z,13.15
2019-03-23T11:41:39.611Z,13.88
2019-03-23T11:44:08.630Z,10.25
2019-03-23T11:46:37.457Z,11.60
2019-03-23T11:49:06.581Z,13.98
2019-03-23T11:51:35.186Z,13.22
2019-03-23T11:54:04.602Z,14.60
2019-03-23T11:56:33.214Z,9.63
2019-03-23T11:59:01.834Z,7.85
2019-03-23T12:01:30.419Z,11.55
2019-03-23T12:03:59.232Z,11.93
2019-03-23T12:06:27.822Z,11.08
2019-03-23T12:08:57.575Z,15.68
2019-03-23T12:11:26.249Z,11.03
2019-03-23T12:13:54.855Z,13.45
2019-03-23T12:16:23.515Z,13.50
2019-03-23T12:18:52.112Z,17.32
2019-03-23T12:21:20.963Z,15.80
2019-03-23T12:23:49.739Z,16.70
2019-03-23T12:26:18.560Z,18.00
2019-03-23T12:28:47.133Z,17.70
2019-03-23T12:31:15.740Z,16.60
2019-03-23T12:33:44.424Z,17.87
2019-03-23T12:36:13.026Z,15.95
2019-03-23T12:38:41.856Z,20.45
2019-03-23T12:41:22.558Z,14.90
2019-03-23T12:43:40.850Z,17.50
2019-03-23T12:46:09.658Z,16.52
2019-03-23T12:48:39.013Z,12.45
2019-03-23T12:51:07.626Z,17.90
2019-03-23T12:53:36.212Z,15.30
2019-03-23T12:56:04.921Z,16.75
2019-03-23T12:58:33.585Z,15.43
2019-03-23T13:01:02.293Z,18.02
2019-03-23T13:03:30.982Z,23.60
2019-03-23T13:05:59.615Z,24.30
2019-03-23T13:08:28.310Z,27.42
2019-03-23T13:10:57.114Z,23.05
2019-03-23T13:13:25.841Z,22.87
2019-03-23T13:15:54.438Z,24.70
2019-03-23T13:18:27.111Z,27.30
2019-03-23T13:20:53.405Z,24.73
2019-03-23T13:23:22.421Z,23.55
2019-03-23T13:25:51.127Z,22.77
2019-03-23T13:28:19.787Z,22.27
2019-03-23T13:30:48.466Z,21.27
2019-03-23T13:33:17.097Z,21.30
2019-03-23T13:35:45.731Z,22.93
2019-03-23T13:38:14.435Z,21.77
2019-03-23T13:40:43.109Z,22.03
2019-03-23T13:43:11.721Z,22.00
2019-03-23T13:45:42.741Z,23.20
2019-03-23T13:48:11.115Z,24.63
2019-03-23T13:50:39.856Z,22.10
2019-03-23T13:53:08.785Z,20.83
2019-03-23T13:55:37.465Z,23.77
2019-03-23T13:58:08.704Z,21.33
2019-03-23T14:00:37.592Z,25.33
2019-03-23T14:03:07.615Z,25.93
2019-03-23T14:05:39.493Z,23.53
2019-03-23T14:08:08.173Z,29.50
2019-03-23T14:10:36.757Z,23.77
2019-03-23T14:13:05.532Z,23.60
2019-03-23T14:15:34.274Z,24.77
2019-03-23T14:18:02.877Z,30.47
2019-03-23T14:20:31.971Z,26.00
2019-03-23T14:23:02.961Z,23.43
2019-03-23T14:25:30.827Z,30.90
2019-03-23T14:27:59.767Z,26.73
2019-03-23T14:30:29.674Z,23.83
2019-03-23T14:32:58.322Z,26.93
2019-03-23T14:35:27.019Z,25.07
2019-03-23T14:37:55.633Z,28.57
2019-03-23T14:40:24.310Z,33.00
2019-03-23T14:42:53.199Z,34.67
2019-03-23T14:45:21.869Z,34.17
2019-03-23T14:47:50.639Z,26.67
2019-03-23T14:50:19.578Z,27.53
2019-03-23T14:52:48.227Z,26.80
2019-03-23T14:55:16.799Z,22.93
2019-03-23T14:57:45.422Z,26.10
2019-03-23T15:00:16.129Z,30.13
2019-03-23T15:02:44.899Z,24.30
2019-03-23T15:05:13.528Z,22.83
2019-03-23T15:07:42.214Z,27.83
2019-03-23T15:10:11.815Z,24.83
2019-03-23T15:12:40.443Z,25.47
2019-03-23T15:15:09.976Z,26.27
2019-03-23T15:17:48.233Z,22.80
2019-03-23T15:20:09.192Z,24.10
2019-03-23T15:22:37.782Z,27.23
2019-03-23T15:25:07.267Z,21.80
2019-03-23T15:27:35.926Z,28.03
2019-03-23T15:30:08.980Z,28.73
2019-03-23T15:32:37.608Z,29.13
2019-03-23T15:35:08.155Z,35.03
2019-03-23T15:37:37.152Z,32.57
2019-03-23T15:40:07.951Z,31.73
2019-03-23T15:42:36.638Z,29.13
2019-03-23T15:45:09.777Z,32.77
2019-03-23T15:47:39.527Z,28.87
2019-03-23T15:50:09.395Z,26.67
2019-03-23T15:52:41.174Z,30.70
2019-03-23T15:55:10.521Z,31.40
2019-03-23T15:57:39.229Z,30.37
2019-03-23T16:00:09.885Z,31.87
2019-03-23T16:02:38.706Z,30.17
2019-03-23T16:05:08.117Z,31.43
2019-03-23T16:07:41.327Z,32.47
2019-03-23T16:10:11.057Z,28.53
2019-03-23T16:12:39.799Z,27.90
2019-03-23T16:15:11.277Z,34.97
2019-03-23T16:17:40.018Z,33.43
2019-03-23T16:20:11.507Z,31.83
2019-03-23T16:22:40.439Z,35.20
2019-03-23T16:25:10.696Z,33.23
2019-03-23T16:27:41.220Z,35.63
2019-03-23T16:30:12.069Z,38.57
2019-03-23T16:32:40.807Z,36.43
2019-03-23T16:35:10.098Z,32.47
2019-03-23T16:37:39.371Z,35.60
2019-03-23T16:40:10.066Z,35.90
2019-03-23T16:42:45.226Z,40.07
2019-03-23T16:45:10.740Z,40.33
2019-03-23T16:47:39.433Z,37.83
2019-03-23T16:50:08.804Z,40.27
2019-03-23T16:52:38.607Z,38.20
2019-03-23T16:55:08.851Z,36.77
2019-03-23T16:57:37.573Z,40.47
2019-03-23T17:00:12.767Z,40.63
2019-03-23T17:02:41.694Z,39.47
2019-03-23T17:05:10.489Z,38.23
2019-03-23T17:07:39.291Z,42.43
2019-03-23T17:10:08.892Z,48.40
2019-03-23T17:12:37.524Z,46.97
2019-03-23T17:15:07.555Z,54.90
2019-03-23T17:17:36.649Z,46.17
2019-03-23T17:20:06.186Z,45.23
2019-03-23T17:22:35.116Z,45.73
2019-03-23T17:25:06.429Z,48.87
2019-03-23T17:27:35.055Z,43.97
2019-03-23T17:30:05.241Z,40.13
2019-03-23T17:32:33.822Z,43.30
2019-03-23T17:35:02.568Z,40.80
2019-03-23T17:37:31.215Z,40.73
2019-03-23T17:40:00.117Z,50.60
2019-03-23T17:42:28.936Z,41.30
2019-03-23T17:44:57.761Z,75.90
2019-03-23T17:47:29.669Z,41.27
2019-03-23T17:49:58.481Z,62.48
2019-03-23T17:52:27.251Z,39.30
2019-03-23T17:54:55.944Z,44.93
2019-03-23T17:57:24.597Z,41.17
2019-03-23T17:59:53.269Z,48.03
2019-03-23T18:02:22.096Z,45.27
2019-03-23T18:04:50.650Z,39.87
2019-03-23T18:07:19.506Z,39.70
2019-03-23T18:09:48.096Z,46.27
2019-03-23T18:12:16.847Z,40.10
2019-03-23T18:14:45.527Z,50.53
2019-03-23T18:17:14.279Z,39.63
2019-03-23T18:19:42.850Z,43.27
2019-03-23T18:22:11.470Z,44.80
2019-03-23T18:24:40.166Z,41.70
2019-03-23T18:27:08.914Z,43.40
2019-03-23T18:29:37.640Z,41.93
2019-03-23T18:32:06.378Z,44.50
2019-03-23T18:34:34.986Z,44.93
2019-03-23T18:37:03.851Z,37.73
2019-03-23T18:39:32.459Z,37.03
2019-03-23T18:42:01.184Z,39.07
2019-03-23T18:44:29.947Z,38.50
2019-03-23T18:46:58.518Z,40.67
2019-03-23T18:49:27.140Z,34.47
2019-03-23T18:51:57.542Z,36.03
2019-03-23T18:54:26.219Z,37.50
2019-03-23T18:56:54.794Z,36.80
2019-03-23T18:59:23.394Z,36.33
2019-03-23T19:01:51.992Z,46.03
2019-03-23T19:04:20.605Z,40.47
2019-03-23T19:06:49.217Z,54.97
2019-03-23T19:09:17.863Z,53.57
2019-03-23T19:11:46.661Z,43.73
2019-03-23T19:14:15.393Z,42.57
2019-03-23T19:16:44.097Z,37.20
2019-03-23T19:19:12.642Z,36.40
2019-03-23T19:21:41.237Z,31.83
2019-03-23T19:24:12.242Z,34.37
2019-03-23T19:26:40.453Z,44.07
2019-03-23T19:29:09.178Z,35.97
2019-03-23T19:31:39.531Z,39.33
2019-03-23T19:34:08.413Z,39.67
2019-03-23T19:36:37.030Z,41.70
2019-03-23T19:39:08.036Z,39.43
2019-03-23T19:41:36.786Z,33.27
2019-03-23T19:44:05.463Z,36.13
2019-03-23T19:46:34.094Z,35.40
2019-03-23T19:49:03.066Z,31.23
2019-03-23T19:51:31.959Z,31.87
2019-03-23T19:54:00.950Z,38.47
2019-03-23T19:56:29.634Z,51.27
2019-03-23T19:58:58.278Z,36.40
2019-03-23T20:01:27.082Z,36.47
2019-03-23T20:03:55.695Z,37.23
2019-03-23T20:06:24.377Z,34.10
2019-03-23T20:08:53.107Z,35.70
2019-03-23T20:11:22.174Z,34.87
2019-03-23T20:13:58.408Z,38.77
2019-03-23T20:16:21.279Z,39.87
2019-03-23T20:18:50.047Z,33.70
2019-03-23T20:21:18.928Z,36.83
2019-03-23T20:23:47.624Z,34.33
2019-03-23T20:26:16.327Z,38.10
2019-03-23T20:28:44.977Z,37.93
2019-03-23T20:31:13.769Z,34.63
2019-03-23T20:33:42.435Z,36.20
2019-03-23T20:36:11.232Z,34.47
2019-03-23T20:38:40.060Z,38.57
2019-03-23T20:41:08.683Z,37.60
2019-03-23T20:43:38.554Z,34.10
2019-03-23T20:46:07.809Z,37.07
2019-03-23T20:48:37.313Z,41.83
2019-03-23T20:51:06.047Z,41.30
2019-03-23T20:53:34.710Z,32.73
2019-03-23T20:56:03.505Z,38.47
2019-03-23T20:58:32.102Z,39.60
2019-03-23T21:01:00.704Z,39.00
2019-03-23T21:03:29.640Z,39.67
2019-03-23T21:05:58.242Z,42.00
2019-03-23T21:08:26.947Z,39.43
2019-03-23T21:10:55.690Z,36.07
2019-03-23T21:13:24.456Z,41.30
2019-03-23T21:15:53.009Z,74.77
2019-03-23T21:18:21.650Z,43.73
2019-03-23T21:20:50.361Z,35.10
2019-03-23T21:23:18.989Z,34.23
2019-03-23T21:25:47.640Z,34.33
2019-03-23T21:28:16.301Z,38.77
2019-03-23T21:30:44.998Z,35.90
2019-03-23T21:33:13.716Z,41.27
2019-03-23T21:35:42.484Z,36.10
2019-03-23T21:38:11.145Z,41.33
2019-03-23T21:40:39.711Z,43.07
2019-03-23T21:43:08.454Z,35.90
2019-03-23T21:45:37.099Z,33.83
2019-03-23T21:48:05.893Z,37.90
2019-03-23T21:50:34.488Z,35.27
2019-03-23T21:53:03.277Z,36.93
2019-03-23T21:55:31.916Z,38.33
2019-03-23T21:58:00.581Z,36.57
2019-03-23T22:00:34.539Z,36.37
2019-03-23T22:03:03.661Z,35.40
2019-03-23T22:05:32.539Z,31.23
2019-03-23T22:08:01.234Z,36.17
2019-03-23T22:10:30.214Z,36.80
2019-03-23T22:12:58.819Z,30.87
2019-03-23T22:15:29.162Z,30.03
2019-03-23T22:17:57.735Z,33.50
2019-03-23T22:20:26.484Z,32.30
2019-03-23T22:22:55.011Z,34.43
2019-03-23T22:25:23.662Z,33.53
2019-03-23T22:27:52.289Z,26.63
2019-03-23T22:30:21.032Z,32.27
2019-03-23T22:32:49.622Z,31.60
2019-03-23T22:35:18.255Z,31.10
2019-03-23T22:37:46.948Z,29.60
2019-03-23T22:40:15.954Z,33.50
2019-03-23T22:42:44.614Z,33.63
2019-03-23T22:45:13.627Z,26.20
2019-03-23T22:47:42.322Z,28.90
2019-03-23T22:50:11.768Z,29.63
2019-03-23T22:52:40.905Z,27.90
2019-03-23T22:55:09.838Z,29.00
2019-03-23T22:57:38.552Z,28.63
2019-03-23T23:00:16.943Z,27.17
2019-03-23T23:02:45.916Z,24.63
2019-03-23T23:05:15.382Z,26.00
2019-03-23T23:07:44.654Z,27.13
2019-03-23T23:10:13.853Z,24.30
2019-03-23T23:12:42.498Z,21.20
2019-03-23T23:15:11.651Z,24.23
2019-03-23T23:17:40.245Z,24.13
2019-03-23T23:20:09.230Z,28.80
2019-03-23T23:22:37.845Z,19.90
2019-03-23T23:25:07.292Z,23.63
2019-03-23T23:27:36.394Z,23.43
2019-03-23T23:30:07.606Z,21.70
2019-03-23T23:32:36.594Z,21.60
2019-03-23T23:35:07.714Z,18.60
2019-03-23T23:37:36.482Z,19.53
2019-03-23T23:40:07.481Z,21.63
2019-03-23T23:42:36.252Z,17.33
2019-03-23T23:45:15.323Z,25.63
2019-03-23T23:47:37.971Z,21.60
2019-03-23T23:50:07.555Z,20.10
2019-03-23T23:52:36.161Z,19.60
2019-03-23T23:55:06.362Z,21.33
2019-03-23T23:57:35.043Z,20.43
